Time,TemperatureF,DewpointF,PressureIn,WindDirection,WindDirectionDegrees,WindSpeedMPH,WindSpeedGustMPH,Humidity,HourlyPrecipIn,Conditions,Clouds,dailyrainin,SoftwareType,DateUTC
2013-08-26 00:03:00,70.0,64.0,30.22,SE,145,1.0,3.0,80,0.00,,,0.00,,2013-08-26 05:03:00,
2013-08-26 00:23:00,70.0,64.0,30.22,SE,145,0.0,1.0,81,0.00,,,0.00,,2013-08-26 05:23:00,
2013-08-26 00:33:00,70.0,64.0,30.22,SE,145,0.0,1.0,81,0.00,,,0.00,,2013-08-26 05:33:00,
2013-08-26 00:52:00,70.0,64.0,30.21,SE,145,0.0,1.0,82,0.00,,,0.00,,2013-08-26 05:52:00,
2013-08-26 01:02:00,70.0,64.0,30.21,SE,145,0.0,1.0,82,0.00,,,0.00,,2013-08-26 06:02:00,
2013-08-26 01:12:00,70.0,64.0,30.21,SE,145,0.0,1.0,82,0.00,,,0.00,,2013-08-26 06:12:00,
2013-08-26 01:21:00,70.0,64.0,30.21,SE,145,0.0,1.0,81,0.00,,,0.00,,2013-08-26 06:21:00,
2013-08-26 01:32:00,70.0,64.0,30.21,SE,145,0.0,1.0,81,0.00,,,0.00,,2013-08-26 06:32:00,
2013-08-26 01:52:00,70.0,65.0,30.21,SE,145,0.0,2.0,83,0.00,,,0.00,,2013-08-26 06:52:00,
2013-08-26 02:02:00,70.0,65.0,30.21,SE,145,0.0,2.0,83,0.00,,,0.00,,2013-08-26 07:02:00,
2013-08-26 02:22:00,70.0,65.0,30.21,SE,145,0.0,1.0,84,0.00,,,0.00,,2013-08-26 07:22:00,
2013-08-26 02:32:00,70.0,65.0,30.21,SE,145,0.0,1.0,84,0.00,,,0.00,,2013-08-26 07:32:00,
2013-08-26 02:52:00,69.0,65.0,30.20,SE,145,0.0,2.0,86,0.00,,,0.00,,2013-08-26 07:52:00,
2013-08-26 03:02:00,69.0,65.0,30.20,SE,145,0.0,2.0,86,0.00,,,0.00,,2013-08-26 08:02:00,
2013-08-26 03:22:00,69.0,65.0,30.20,SE,146,1.0,4.0,87,0.00,,,0.00,,2013-08-26 08:22:00,
2013-08-26 03:32:00,69.0,65.0,30.20,SE,146,1.0,4.0,87,0.00,,,0.00,,2013-08-26 08:32:00,
2013-08-26 03:52:00,69.0,65.0,30.20,SE,145,0.0,3.0,88,0.00,,,0.00,,2013-08-26 08:52:00,
2013-08-26 04:02:00,69.0,65.0,30.20,SE,145,0.0,3.0,88,0.00,,,0.00,,2013-08-26 09:02:00,
2013-08-26 04:21:00,69.0,66.0,30.19,SE,146,0.0,2.0,90,0.00,,,0.00,,2013-08-26 09:21:00,
2013-08-26 04:33:00,69.0,66.0,30.19,SE,146,0.0,2.0,90,0.00,,,0.00,,2013-08-26 09:33:00,
2013-08-26 04:54:00,69.0,66.0,30.19,SE,146,0.0,1.0,91,0.00,,,0.00,,2013-08-26 09:54:00,
2013-08-26 05:03:00,69.0,66.0,30.19,SE,146,0.0,1.0,91,0.00,,,0.00,,2013-08-26 10:03:00,
2013-08-26 05:23:00,69.0,67.0,30.19,SE,146,0.0,1.0,92,0.00,,,0.00,,2013-08-26 10:23:00,
2013-08-26 05:32:00,69.0,67.0,30.19,SE,146,0.0,1.0,92,0.00,,,0.00,,2013-08-26 10:32:00,
2013-08-26 05:52:00,69.0,67.0,30.20,SE,146,0.0,1.0,92,0.00,,,0.00,,2013-08-26 10:52:00,
2013-08-26 06:02:00,69.0,67.0,30.20,SE,146,0.0,1.0,92,0.00,,,0.00,,2013-08-26 11:02:00,
2013-08-26 06:22:00,69.0,67.0,30.20,SE,146,0.0,2.0,93,0.00,,,0.00,,2013-08-26 11:22:00,
2013-08-26 06:33:00,69.0,67.0,30.20,SE,146,0.0,2.0,93,0.00,,,0.00,,2013-08-26 11:33:00,
2013-08-26 06:52:00,69.0,67.0,30.21,SE,146,0.0,1.0,93,0.00,,,0.00,,2013-08-26 11:52:00,
2013-08-26 07:01:00,69.0,67.0,30.21,SE,146,0.0,1.0,93,0.00,,,0.00,,2013-08-26 12:01:00,
2013-08-26 07:21:00,70.0,68.0,30.22,SE,146,0.0,2.0,94,0.00,,,0.00,,2013-08-26 12:21:00,
2013-08-26 07:32:00,70.0,68.0,30.22,SE,146,0.0,2.0,94,0.00,,,0.00,,2013-08-26 12:32:00,
2013-08-26 07:52:00,71.0,69.0,30.22,SE,146,0.0,3.0,94,0.00,,,0.00,,2013-08-26 12:52:00,
2013-08-26 08:21:00,72.0,70.0,30.23,SSW,200,2.0,7.0,93,0.00,,,0.00,,2013-08-26 13:21:00,
2013-08-26 08:32:00,72.0,70.0,30.23,SSW,200,2.0,7.0,93,0.00,,,0.00,,2013-08-26 13:32:00,
2013-08-26 08:52:00,74.0,72.0,30.23,SSW,207,3.0,6.0,92,0.00,,,0.00,,2013-08-26 13:52:00,
2013-08-26 09:02:00,74.0,72.0,30.23,SSW,207,3.0,6.0,92,0.00,,,0.00,,2013-08-26 14:02:00,
2013-08-26 09:22:00,75.0,72.0,30.23,SW,215,1.0,6.0,90,0.00,,,0.00,,2013-08-26 14:22:00,
2013-08-26 09:32:00,75.0,72.0,30.23,SW,215,1.0,6.0,90,0.00,,,0.00,,2013-08-26 14:32:00,
2013-08-26 09:52:00,78.0,73.0,30.22,SSW,211,2.0,6.0,86,0.00,,,0.00,,2013-08-26 14:52:00,
2013-08-26 10:01:00,78.0,73.0,30.22,SSW,211,2.0,6.0,86,0.00,,,0.00,,2013-08-26 15:01:00,
2013-08-26 10:12:00,78.0,73.0,30.22,SSW,211,2.0,6.0,86,0.00,,,0.00,,2013-08-26 15:12:00,
2013-08-26 10:22:00,78.0,73.0,30.22,SSW,211,2.0,6.0,86,0.00,,,0.00,,2013-08-26 15:22:00,
2013-08-26 10:59:00,82.0,75.0,30.21,SW,218,2.0,6.0,79,0.00,,,0.00,,2013-08-26 15:59:00,
2013-08-26 11:10:00,82.0,75.0,30.21,SW,218,2.0,6.0,79,0.00,,,0.00,,2013-08-26 16:10:00,
2013-08-26 11:29:00,83.0,75.0,30.20,SW,235,3.0,6.0,76,0.00,,,0.00,,2013-08-26 16:29:00,
2013-08-26 11:36:00,83.0,75.0,30.20,SW,235,3.0,6.0,76,0.00,,,0.00,,2013-08-26 16:36:00,
2013-08-26 11:59:00,85.0,76.0,30.20,SW,214,2.0,9.0,75,0.00,,,0.00,,2013-08-26 16:59:00,
2013-08-26 12:06:00,85.0,76.0,30.20,SW,214,2.0,9.0,75,0.00,,,0.00,,2013-08-26 17:06:00,
2013-08-26 12:24:00,85.0,75.0,30.19,SW,225,0.0,4.0,71,0.00,,,0.00,,2013-08-26 17:24:00,
2013-08-26 12:36:00,85.0,75.0,30.19,SW,225,0.0,4.0,71,0.00,,,0.00,,2013-08-26 17:36:00,
2013-08-26 12:53:00,86.0,73.0,30.18,South,186,2.0,7.0,66,0.00,,,0.00,,2013-08-26 17:53:00,
2013-08-26 13:01:00,86.0,73.0,30.18,South,186,2.0,7.0,66,0.00,,,0.00,,2013-08-26 18:01:00,
2013-08-26 13:12:00,86.0,73.0,30.18,South,186,2.0,7.0,66,0.00,,,0.00,,2013-08-26 18:12:00,
2013-08-26 13:21:00,88.0,73.0,30.17,WSW,241,3.0,7.0,61,0.00,,,0.00,,2013-08-26 18:21:00,
2013-08-26 13:32:00,88.0,73.0,30.17,WSW,241,3.0,7.0,61,0.00,,,0.00,,2013-08-26 18:32:00,
2013-08-26 13:52:00,88.0,72.0,30.16,West,266,1.0,7.0,60,0.00,,,0.00,,2013-08-26 18:52:00,
2013-08-26 14:01:00,88.0,72.0,30.16,West,266,1.0,7.0,60,0.00,,,0.00,,2013-08-26 19:01:00,
2013-08-26 14:22:00,89.0,72.0,30.15,SSW,208,0.0,6.0,57,0.00,,,0.00,,2013-08-26 19:22:00,
2013-08-26 14:32:00,89.0,72.0,30.15,SSW,208,0.0,6.0,57,0.00,,,0.00,,2013-08-26 19:32:00,
2013-08-26 14:52:00,89.0,73.0,30.14,SSE,151,2.0,8.0,60,0.00,,,0.00,,2013-08-26 19:52:00,
2013-08-26 15:02:00,89.0,73.0,30.14,SSE,151,2.0,8.0,60,0.00,,,0.00,,2013-08-26 20:02:00,
2013-08-26 15:22:00,90.0,72.0,30.13,SW,216,3.0,9.0,55,0.00,,,0.00,,2013-08-26 20:22:00,
2013-08-26 15:32:00,90.0,72.0,30.13,SW,216,3.0,9.0,55,0.00,,,0.00,,2013-08-26 20:32:00,
2013-08-26 15:52:00,90.0,73.0,30.12,SW,224,4.0,7.0,58,0.00,,,0.00,,2013-08-26 20:52:00,
2013-08-26 16:01:00,90.0,73.0,30.12,SW,224,4.0,7.0,58,0.00,,,0.00,,2013-08-26 21:01:00,
2013-08-26 16:22:00,89.0,74.0,30.11,SW,224,1.0,6.0,61,0.00,,,0.00,,2013-08-26 21:22:00,
2013-08-26 16:35:00,89.0,74.0,30.11,SW,224,1.0,6.0,61,0.00,,,0.00,,2013-08-26 21:35:00,
2013-08-26 16:55:00,88.0,74.0,30.11,SW,222,2.0,5.0,63,0.00,,,0.00,,2013-08-26 21:55:00,
2013-08-26 17:07:00,88.0,74.0,30.11,SW,222,2.0,5.0,63,0.00,,,0.00,,2013-08-26 22:07:00,
2013-08-26 17:16:00,88.0,74.0,30.11,SW,222,2.0,5.0,63,0.00,,,0.00,,2013-08-26 22:16:00,
2013-08-26 17:26:00,88.0,74.0,30.11,SW,222,2.0,5.0,63,0.00,,,0.00,,2013-08-26 22:26:00,
2013-08-26 17:53:00,87.0,74.0,30.10,SW,222,0.0,8.0,65,0.00,,,0.00,,2013-08-26 22:53:00,
2013-08-26 18:03:00,87.0,74.0,30.10,SW,222,0.0,8.0,65,0.00,,,0.00,,2013-08-26 23:03:00,
2013-08-26 18:12:00,87.0,74.0,30.10,SW,222,0.0,8.0,65,0.00,,,0.00,,2013-08-26 23:12:00,
2013-08-26 18:22:00,87.0,74.0,30.10,SW,222,0.0,8.0,65,0.00,,,0.00,,2013-08-26 23:22:00,
2013-08-26 18:52:00,85.0,73.0,30.09,SSW,204,0.0,2.0,67,0.00,,,0.00,,2013-08-26 23:52:00,
2013-08-26 19:01:00,85.0,73.0,30.09,SSW,204,0.0,2.0,67,0.00,,,0.00,,2013-08-27 00:01:00,
2013-08-26 19:21:00,84.0,73.0,30.09,SSW,204,0.0,1.0,69,0.00,,,0.00,,2013-08-27 00:21:00,
2013-08-26 19:32:00,84.0,73.0,30.09,SSW,204,0.0,1.0,69,0.00,,,0.00,,2013-08-27 00:32:00,
2013-08-26 19:52:00,83.0,73.0,30.09,SSW,204,0.0,1.0,72,0.00,,,0.00,,2013-08-27 00:52:00,
2013-08-26 20:02:00,83.0,73.0,30.09,SSW,204,0.0,1.0,72,0.00,,,0.00,,2013-08-27 01:02:00,
2013-08-26 20:22:00,80.0,72.0,30.09,SSW,204,0.0,1.0,76,0.00,,,0.00,,2013-08-27 01:22:00,
2013-08-26 20:32:00,80.0,72.0,30.09,SSW,204,0.0,1.0,76,0.00,,,0.00,,2013-08-27 01:32:00,
2013-08-26 20:52:00,79.0,72.0,30.09,SSW,204,0.0,1.0,78,0.00,,,0.00,,2013-08-27 01:52:00,
2013-08-26 21:02:00,79.0,72.0,30.09,SSW,204,0.0,1.0,78,0.00,,,0.00,,2013-08-27 02:02:00,
2013-08-26 21:21:00,78.0,71.0,30.09,SSW,204,0.0,0.0,80,0.00,,,0.00,,2013-08-27 02:21:00,
2013-08-26 21:32:00,78.0,71.0,30.09,SSW,204,0.0,0.0,80,0.00,,,0.00,,2013-08-27 02:32:00,
2013-08-26 21:52:00,77.0,71.0,30.08,SSW,204,0.0,1.0,81,0.00,,,0.00,,2013-08-27 02:52:00,
2013-08-26 22:02:00,77.0,71.0,30.08,SSW,204,0.0,1.0,81,0.00,,,0.00,,2013-08-27 03:02:00,
2013-08-26 22:22:00,76.0,70.0,30.08,SSW,204,0.0,3.0,82,0.00,,,0.00,,2013-08-27 03:22:00,
2013-08-26 22:36:00,76.0,70.0,30.08,SSW,204,0.0,3.0,82,0.00,,,0.00,,2013-08-27 03:36:00,
2013-08-26 22:58:00,76.0,70.0,30.08,SSW,204,0.0,2.0,81,0.00,,,0.00,,2013-08-27 03:58:00,
2013-08-26 23:08:00,76.0,70.0,30.08,SSW,204,0.0,2.0,81,0.00,,,0.00,,2013-08-27 04:08:00,
2013-08-26 23:18:00,76.0,70.0,30.08,SSW,204,0.0,2.0,81,0.00,,,0.00,,2013-08-27 04:18:00,
2013-08-26 23:54:00,75.0,70.0,30.09,SSW,204,0.0,1.0,84,0.00,,,0.00,,2013-08-27 04:54:00,